Time;durP1;ratioP1;P1;durP2;ratioP2;P2;SDS_P1;SDS_P2;PMS_P1;PMS_P2;Temp;Humidity;BMP_temperature;BMP_pressure;BME280_temperature;BME280_humidity;BME280_pressure;Samples;Min_cycle;Max_cycle;Signal;HPM_P1;HPM_P2
2022/09/14 00:01:31;;;;;;;13.63;7.90;;;21.90;99.90;;;;;;4979295;28;20234;-74
2022/09/14 00:04:06;;;;;;;13.13;7.50;;;21.90;99.90;;;;;;4994947;28;20239;-74
2022/09/14 00:06:34;;;;;;;15.40;7.37;;;21.90;99.90;;;;;;5011076;28;20681;-74
2022/09/14 00:09:01;;;;;;;11.27;7.27;;;21.90;99.90;;;;;;5018229;28;20189;-74
2022/09/14 00:11:30;;;;;;;10.63;7.07;;;21.90;99.90;;;;;;5023202;28;20239;-74
2022/09/14 00:14:01;;;;;;;13.73;6.77;;;21.90;99.90;;;;;;5002921;28;20195;-74
2022/09/14 00:16:36;;;;;;;13.23;7.17;;;21.90;99.90;;;;;;5012919;28;20201;-74
2022/09/14 00:19:32;;;;;;;14.83;6.87;;;21.90;99.90;;;;;;4972526;28;20254;-74
2022/09/14 00:21:59;;;;;;;14.10;7.97;;;21.90;99.90;;;;;;5007435;28;20327;-74
2022/09/14 00:24:33;;;;;;;12.57;7.33;;;21.90;99.90;;;;;;5001964;28;20199;-74
2022/09/14 00:27:01;;;;;;;14.35;8.07;;;21.90;99.90;;;;;;4998435;28;20275;-74
2022/09/14 00:29:29;;;;;;;15.17;7.30;;;21.90;99.90;;;;;;5002224;28;20263;-74
2022/09/14 00:31:56;;;;;;;16.37;7.20;;;21.90;99.90;;;;;;5019712;28;20212;-74
2022/09/14 00:34:23;;;;;;;11.80;6.87;;;21.90;99.90;;;;;;4978812;28;20194;-74
2022/09/14 00:36:51;;;;;;;17.17;7.90;;;21.80;99.90;;;;;;4981987;28;21004;-74
2022/09/14 00:39:22;;;;;;;13.75;7.00;;;21.90;99.90;;;;;;4978793;28;20188;-74
2022/09/14 00:41:50;;;;;;;12.60;7.00;;;21.80;99.90;;;;;;4989853;28;20241;-74
2022/09/14 00:44:17;;;;;;;12.93;6.87;;;21.80;99.90;;;;;;4995993;28;20192;-74
2022/09/14 00:46:52;;;;;;;9.03;6.27;;;21.80;99.90;;;;;;4990222;28;20190;-74
2022/09/14 00:49:28;;;;;;;12.20;6.80;;;21.80;99.90;;;;;;4984096;28;20232;-74
2022/09/14 00:52:09;;;;;;;13.35;6.65;;;21.80;99.90;;;;;;5009829;28;20200;-74
2022/09/14 00:54:40;;;;;;;13.40;7.23;;;21.90;99.90;;;;;;5011165;28;20199;-74
2022/09/14 00:57:07;;;;;;;11.10;6.43;;;21.90;99.90;;;;;;4993678;28;20254;-74
2022/09/14 00:59:37;;;;;;;10.35;6.00;;;21.90;99.90;;;;;;5001096;28;20184;-74
2022/09/14 01:02:05;;;;;;;9.90;6.87;;;21.90;99.90;;;;;;4998430;28;20215;-74
2022/09/14 01:04:32;;;;;;;13.13;6.47;;;21.90;99.90;;;;;;4961006;28;20191;-74
2022/09/14 01:07:17;;;;;;;14.87;7.10;;;21.80;99.90;;;;;;4981886;28;20718;-74
2022/09/14 01:10:01;;;;;;;14.03;7.00;;;21.80;99.90;;;;;;5018288;28;20212;-74
2022/09/14 01:13:00;;;;;;;15.50;6.87;;;21.80;99.90;;;;;;4993911;28;20185;-74
2022/09/14 01:15:51;;;;;;;12.90;6.70;;;21.80;99.90;;;;;;5015948;28;20343;-74
2022/09/14 01:18:28;;;;;;;16.70;7.00;;;21.80;99.90;;;;;;5005110;28;20272;-74
2022/09/14 01:21:09;;;;;;;15.60;7.23;;;21.80;99.90;;;;;;4985442;28;20263;-74
2022/09/14 01:24:24;;;;;;;11.65;6.93;;;21.80;99.90;;;;;;4995644;28;20212;-75
2022/09/14 01:27:42;;;;;;;14.60;6.70;;;21.80;99.90;;;;;;4976800;28;20311;-74
2022/09/14 01:30:22;;;;;;;12.13;6.75;;;21.80;99.90;;;;;;4956887;28;20208;-74
2022/09/14 01:33:04;;;;;;;13.60;7.10;;;21.70;99.90;;;;;;4974509;28;20681;-74
2022/09/14 01:35:42;;;;;;;16.80;7.17;;;21.70;99.90;;;;;;4995792;28;20251;-74
2022/09/14 01:38:25;;;;;;;12.17;6.47;;;21.70;99.90;;;;;;5004919;28;20180;-74
2022/09/14 01:40:53;;;;;;;13.40;6.60;;;21.70;99.90;;;;;;5009784;28;20192;-74
2022/09/14 01:43:32;;;;;;;14.05;7.32;;;21.60;99.90;;;;;;5013312;28;20220;-74
2022/09/14 01:46:21;;;;;;;11.40;6.10;;;21.70;99.90;;;;;;5009838;28;20204;-74
2022/09/14 01:49:02;;;;;;;12.60;6.57;;;21.70;99.90;;;;;;4988376;28;20670;-74
2022/09/14 01:51:45;;;;;;;12.80;6.67;;;21.70;99.90;;;;;;5002595;28;20217;-74
2022/09/14 01:54:33;;;;;;;13.85;6.90;;;21.70;99.90;;;;;;4986551;28;20665;-74
2022/09/14 01:57:13;;;;;;;11.70;6.67;;;21.70;99.90;;;;;;5006805;28;20263;-74
2022/09/14 01:59:47;;;;;;;11.50;6.70;;;21.70;99.90;;;;;;4989046;28;20228;-74
2022/09/14 02:02:48;;;;;;;12.88;6.90;;;21.70;99.90;;;;;;4989663;28;20295;-74
2022/09/14 02:05:41;;;;;;;9.23;5.80;;;21.70;99.90;;;;;;5005837;28;20263;-74
2022/09/14 02:08:08;;;;;;;10.77;5.97;;;21.70;99.90;;;;;;4986339;28;20188;-74
2022/09/14 02:10:34;;;;;;;13.43;6.80;;;21.70;99.90;;;;;;5001371;28;20177;-74
2022/09/14 02:13:01;;;;;;;11.80;6.00;;;21.70;99.90;;;;;;4992076;28;20188;-74
2022/09/14 02:15:28;;;;;;;8.87;5.67;;;21.70;99.90;;;;;;4998364;28;20212;-74
2022/09/14 02:17:54;;;;;;;11.00;5.77;;;21.70;99.90;;;;;;5001627;28;20196;-74
2022/09/14 02:20:52;;;;;;;15.47;6.07;;;21.60;99.90;;;;;;4977304;28;20192;-74
2022/09/14 02:23:22;;;;;;;20.63;6.37;;;21.60;99.90;;;;;;4981826;28;20784;-74
2022/09/14 02:25:49;;;;;;;14.07;6.10;;;21.60;99.90;;;;;;5008692;28;20362;-74
2022/09/14 02:28:15;;;;;;;11.33;6.37;;;21.60;99.90;;;;;;5001577;28;20736;-74
2022/09/14 02:30:54;;;;;;;12.77;5.93;;;21.60;99.90;;;;;;4994517;28;20211;-74
2022/09/14 02:33:49;;;;;;;11.73;6.27;;;21.50;99.90;;;;;;5009009;28;20193;-74
2022/09/14 02:36:39;;;;;;;10.57;6.00;;;21.50;99.90;;;;;;5007302;28;20284;-74
2022/09/14 02:39:52;;;;;;;12.53;6.30;;;21.50;99.90;;;;;;5025324;28;20519;-74
2022/09/14 02:42:44;;;;;;;11.40;5.83;;;21.60;99.90;;;;;;4975279;28;20691;-74
2022/09/14 02:45:30;;;;;;;14.63;5.90;;;21.50;99.90;;;;;;5002589;28;20547;-74
2022/09/14 02:48:28;;;;;;;11.97;5.47;;;21.60;99.90;;;;;;5003261;28;20188;-74
2022/09/14 02:51:17;;;;;;;11.55;5.68;;;21.60;99.90;;;;;;5012638;28;20188;-74
2022/09/14 02:53:56;;;;;;;14.03;5.37;;;21.60;99.90;;;;;;5005499;28;20954;-74
2022/09/14 02:56:24;;;;;;;14.17;5.43;;;21.50;99.90;;;;;;5011995;28;20704;-74
2022/09/14 02:58:52;;;;;;;8.57;4.97;;;21.50;99.90;;;;;;5018687;28;20190;-74
2022/09/14 03:01:23;;;;;;;12.67;5.43;;;21.50;99.90;;;;;;4990546;28;20217;-74
2022/09/14 03:03:50;;;;;;;10.53;5.20;;;21.50;99.90;;;;;;4996170;28;20207;-74
2022/09/14 03:06:17;;;;;;;11.47;5.07;;;21.40;99.90;;;;;;5013866;28;20197;-75
2022/09/14 03:08:43;;;;;;;10.70;5.13;;;21.40;99.90;;;;;;4998984;28;20181;-74
2022/09/14 03:11:10;;;;;;;9.67;5.33;;;21.50;99.90;;;;;;5002537;28;20192;-74
2022/09/14 03:13:37;;;;;;;7.93;5.10;;;21.40;99.90;;;;;;4979731;28;20189;-74
2022/09/14 03:16:17;;;;;;;10.40;5.30;;;21.50;99.90;;;;;;5012291;28;20238;-74
2022/09/14 03:18:43;;;;;;;11.90;5.27;;;21.50;99.90;;;;;;4980745;28;20685;-74
2022/09/14 03:21:16;;;;;;;10.03;5.17;;;21.60;99.90;;;;;;4993312;28;20204;-74
2022/09/14 03:23:47;;;;;;;10.30;5.30;;;21.60;99.90;;;;;;4988186;28;20666;-74
2022/09/14 03:26:17;;;;;;;11.77;5.30;;;21.60;99.90;;;;;;5003772;28;20177;-74
2022/09/14 03:28:48;;;;;;;12.60;5.10;;;21.50;99.90;;;;;;5013480;28;20188;-74
2022/09/14 03:31:16;;;;;;;12.03;5.40;;;21.50;99.90;;;;;;5002527;28;20192;-74
2022/09/14 03:33:42;;;;;;;11.87;5.60;;;21.40;99.90;;;;;;4985423;28;20200;-74
2022/09/14 03:36:15;;;;;;;9.10;5.40;;;21.40;99.90;;;;;;4976461;28;20558;-74
2022/09/14 03:38:47;;;;;;;10.40;5.40;;;21.40;99.90;;;;;;4976764;28;20181;-74
2022/09/14 03:41:15;;;;;;;12.50;4.93;;;21.40;99.90;;;;;;4976517;28;20192;-74
2022/09/14 03:43:43;;;;;;;15.97;4.97;;;21.40;99.90;;;;;;5005431;28;20204;-74
2022/09/14 03:46:16;;;;;;;9.43;4.80;;;21.40;99.90;;;;;;5017260;28;20189;-74
2022/09/14 03:48:46;;;;;;;14.80;5.20;;;21.40;99.90;;;;;;4992016;28;20178;-74
2022/09/14 03:51:15;;;;;;;10.13;5.13;;;21.40;99.90;;;;;;4969683;28;20748;-74
2022/09/14 03:53:44;;;;;;;15.57;5.57;;;21.50;99.90;;;;;;4994950;28;21006;-74
2022/09/14 03:56:15;;;;;;;9.83;4.97;;;21.50;99.90;;;;;;4975263;28;20523;-74
2022/09/14 03:58:43;;;;;;;8.77;4.40;;;21.40;99.90;;;;;;4998337;28;20216;-74
2022/09/14 04:01:13;;;;;;;12.53;4.90;;;21.40;99.90;;;;;;4990706;28;20970;-74
2022/09/14 04:03:40;;;;;;;8.73;4.60;;;21.40;99.90;;;;;;5002371;28;20296;-74
2022/09/14 04:06:08;;;;;;;11.17;5.10;;;21.40;99.90;;;;;;5015225;28;20303;-74
2022/09/14 04:08:38;;;;;;;16.17;5.40;;;21.40;99.90;;;;;;4988270;28;20515;-75
2022/09/14 04:11:21;;;;;;;13.17;5.40;;;21.50;99.90;;;;;;4972749;28;20182;-74
2022/09/14 04:13:49;;;;;;;11.80;4.73;;;21.50;99.90;;;;;;4994591;28;20177;-74
2022/09/14 04:16:19;;;;;;;11.13;4.87;;;21.50;99.90;;;;;;4993770;28;20885;-74
2022/09/14 04:18:47;;;;;;;11.00;5.03;;;21.50;99.90;;;;;;5003698;28;20193;-74
2022/09/14 04:21:20;;;;;;;13.13;4.93;;;21.50;99.90;;;;;;5009425;28;20247;-74
2022/09/14 04:23:47;;;;;;;10.73;4.83;;;21.50;99.90;;;;;;4976380;28;20546;-74
2022/09/14 04:26:19;;;;;;;11.70;5.37;;;21.60;99.90;;;;;;5005386;28;20399;-74
2022/09/14 04:28:46;;;;;;;14.20;5.53;;;21.50;99.90;;;;;;5002237;28;20651;-74
2022/09/14 04:31:14;;;;;;;14.47;5.00;;;21.60;99.90;;;;;;4996617;28;20181;-75
2022/09/14 04:33:43;;;;;;;14.13;4.77;;;21.60;99.90;;;;;;5008549;28;20276;-74
2022/09/14 04:36:16;;;;;;;13.23;4.90;;;21.60;99.90;;;;;;4976143;28;20213;-74
2022/09/14 04:38:45;;;;;;;8.50;4.97;;;21.70;99.90;;;;;;4992309;28;20235;-74
2022/09/14 04:41:20;;;;;;;11.10;4.57;;;21.60;99.90;;;;;;5007681;28;20192;-74
2022/09/14 04:43:49;;;;;;;15.97;5.90;;;21.60;99.90;;;;;;4992895;28;20185;-74
2022/09/14 04:46:29;;;;;;;11.23;4.20;;;21.70;99.90;;;;;;4992773;28;20220;-74
2022/09/14 04:48:56;;;;;;;12.87;5.00;;;21.70;99.90;;;;;;4997403;28;20193;-75
2022/09/14 04:51:29;;;;;;;11.63;4.67;;;21.70;99.90;;;;;;4975323;28;20237;-74
2022/09/14 04:53:58;;;;;;;14.43;6.13;;;21.70;99.90;;;;;;4982691;28;20674;-74
2022/09/14 04:56:26;;;;;;;15.30;5.43;;;21.80;99.90;;;;;;4992244;28;20177;-74
2022/09/14 04:58:57;;;;;;;11.97;5.07;;;21.80;99.90;;;;;;4992435;28;20199;-74
2022/09/14 05:01:31;;;;;;;14.30;4.80;;;21.90;99.90;;;;;;4988363;28;20178;-74
2022/09/14 05:03:58;;;;;;;13.17;4.70;;;22.00;99.90;;;;;;4986951;28;20354;-74
2022/09/14 05:06:28;;;;;;;11.67;5.00;;;22.10;99.90;;;;;;5022989;28;20263;-74
2022/09/14 05:08:56;;;;;;;11.37;4.53;;;22.10;99.90;;;;;;5009608;28;20177;-74
2022/09/14 05:11:27;;;;;;;15.90;5.23;;;22.20;99.90;;;;;;5002518;28;20278;-74
2022/09/14 05:13:56;;;;;;;9.75;4.97;;;22.30;99.90;;;;;;5013250;28;20180;-74
2022/09/14 05:16:35;;;;;;;17.45;5.53;;;22.30;99.90;;;;;;4986759;28;20265;-74
2022/09/14 05:19:06;;;;;;;12.50;4.95;;;22.40;99.90;;;;;;5002667;28;20246;-74
2022/09/14 05:21:36;;;;;;;13.85;4.80;;;22.50;99.90;;;;;;5011197;28;20196;-74
2022/09/14 05:24:11;;;;;;;8.25;4.47;;;22.60;99.90;;;;;;5014787;28;20200;-74
2022/09/14 05:26:37;;;;;;;11.43;4.90;;;22.70;99.90;;;;;;4995205;28;20215;-74
2022/09/14 05:29:04;;;;;;;9.77;4.45;;;22.80;99.90;;;;;;5005084;28;20182;-75
2022/09/14 05:31:31;;;;;;;12.95;4.90;;;22.80;99.90;;;;;;5008883;28;20213;-74
2022/09/14 05:33:58;;;;;;;13.77;4.85;;;22.90;99.90;;;;;;5011133;28;20628;-74
2022/09/14 05:36:25;;;;;;;9.55;4.97;;;23.00;99.90;;;;;;4993368;28;20769;-74
2022/09/14 05:38:51;;;;;;;12.65;5.10;;;23.00;99.90;;;;;;4995626;28;20196;-74
2022/09/14 05:41:18;;;;;;;9.25;3.85;;;23.00;99.90;;;;;;4993224;28;20196;-74
2022/09/14 05:43:45;;;;;;;16.30;4.40;;;22.90;99.90;;;;;;5009094;28;20192;-74
2022/09/14 05:46:19;;;;;;;10.38;4.47;;;22.80;99.90;;;;;;4989949;28;20198;-74
2022/09/14 05:48:50;;;;;;;8.93;3.90;;;22.80;99.90;;;;;;4990017;28;20196;-74
2022/09/14 05:51:21;;;;;;;12.48;4.22;;;22.90;99.90;;;;;;5016483;28;20219;-74
2022/09/14 05:53:53;;;;;;;8.98;4.13;;;22.90;99.90;;;;;;4991203;28;20555;-74
2022/09/14 05:56:22;;;;;;;13.65;4.35;;;22.90;99.90;;;;;;4973943;28;20582;-74
2022/09/14 05:58:51;;;;;;;7.38;3.72;;;22.90;99.90;;;;;;4980852;28;20182;-74
2022/09/14 06:01:25;;;;;;;13.05;4.15;;;23.00;99.90;;;;;;4978650;28;20187;-74
2022/09/14 06:03:59;;;;;;;10.20;4.63;;;23.00;99.90;;;;;;4981999;28;20319;-74
2022/09/14 06:06:26;;;;;;;9.05;3.80;;;23.10;99.90;;;;;;5018693;28;20525;-74
2022/09/14 06:09:02;;;;;;;13.55;4.15;;;23.10;99.90;;;;;;5019299;28;20184;-74
2022/09/14 06:11:35;;;;;;;7.78;3.67;;;23.20;99.90;;;;;;5010483;28;20320;-74
2022/09/14 06:14:03;;;;;;;11.50;3.95;;;23.20;99.90;;;;;;4991014;28;20197;-74
2022/09/14 06:16:29;;;;;;;11.07;4.22;;;23.20;99.90;;;;;;4994880;28;20208;-74
2022/09/14 06:18:58;;;;;;;15.35;4.28;;;23.20;99.90;;;;;;4981461;28;20207;-74
2022/09/14 06:21:30;;;;;;;12.82;3.97;;;23.20;99.90;;;;;;4976909;28;20829;-74
2022/09/14 06:23:57;;;;;;;7.72;3.35;;;23.30;99.90;;;;;;4975971;28;20348;-74
2022/09/14 06:26:24;;;;;;;8.32;3.50;;;23.30;99.90;;;;;;5006909;28;20177;-74
2022/09/14 06:28:51;;;;;;;9.05;3.40;;;23.30;99.90;;;;;;4988666;28;20180;-74
2022/09/14 06:31:24;;;;;;;8.43;3.15;;;23.30;99.90;;;;;;5009678;28;20228;-75
2022/09/14 06:33:52;;;;;;;7.05;3.47;;;23.40;99.90;;;;;;5028860;28;20180;-74
2022/09/14 06:36:23;;;;;;;9.82;3.15;;;23.50;99.90;;;;;;5018606;28;20530;-74
2022/09/14 06:38:51;;;;;;;6.88;3.22;;;23.40;99.90;;;;;;4978533;28;20222;-74
2022/09/14 06:41:22;;;;;;;10.07;3.40;;;23.40;99.90;;;;;;4999756;28;20181;-74
2022/09/14 06:43:49;;;;;;;9.55;3.35;;;23.60;99.90;;;;;;5001317;28;20188;-74
2022/09/14 06:46:24;;;;;;;4.85;2.90;;;23.70;99.90;;;;;;5007268;28;20192;-74
2022/09/14 06:49:19;;;;;;;6.22;2.67;;;23.90;99.90;;;;;;5013702;28;20221;-74
2022/09/14 06:51:46;;;;;;;5.60;2.35;;;23.90;99.90;;;;;;5009633;28;20276;-74
2022/09/14 06:54:15;;;;;;;4.55;2.40;;;23.80;99.90;;;;;;5029165;28;20224;-74
2022/09/14 06:56:44;;;;;;;4.82;2.40;;;23.90;99.90;;;;;;5010051;28;20189;-74
2022/09/14 06:59:14;;;;;;;4.43;2.47;;;23.90;99.90;;;;;;4979500;28;20312;-74
2022/09/14 07:01:48;;;;;;;5.25;2.90;;;23.90;99.90;;;;;;4974037;28;20212;-74
2022/09/14 07:04:17;;;;;;;7.55;2.90;;;23.90;99.90;;;;;;4998221;28;20196;-74
2022/09/14 07:06:49;;;;;;;9.95;3.25;;;24.00;99.90;;;;;;5018185;28;20190;-74
2022/09/14 07:09:19;;;;;;;5.20;2.70;;;24.10;99.90;;;;;;4985674;28;20251;-74
2022/09/14 07:11:46;;;;;;;4.40;2.53;;;24.20;99.90;;;;;;5001926;28;20192;-74
2022/09/14 07:14:12;;;;;;;10.90;2.90;;;24.30;99.90;;;;;;4977496;28;20267;-74
2022/09/14 07:16:40;;;;;;;6.25;3.05;;;24.40;99.90;;;;;;5003310;28;20250;-73
2022/09/14 07:19:13;;;;;;;8.73;2.97;;;24.50;99.90;;;;;;5010081;28;20268;-74
2022/09/14 07:21:41;;;;;;;7.25;2.85;;;24.50;99.90;;;;;;4995603;28;20201;-74
2022/09/14 07:24:07;;;;;;;5.65;2.63;;;24.50;99.90;;;;;;4994953;28;20196;-74
2022/09/14 07:26:40;;;;;;;7.88;2.63;;;24.60;99.90;;;;;;5009126;28;20177;-74
2022/09/14 07:29:14;;;;;;;6.15;2.42;;;24.60;99.90;;;;;;5011910;28;20185;-73
2022/09/14 07:31:53;;;;;;;4.40;2.35;;;24.70;99.90;;;;;;5005583;28;20208;-73
2022/09/14 07:34:22;;;;;;;5.45;2.50;;;24.70;99.90;;;;;;5005426;28;20213;-73
2022/09/14 07:36:48;;;;;;;6.10;2.50;;;24.80;99.90;;;;;;4981937;28;20189;-73
2022/09/14 07:39:17;;;;;;;5.00;2.42;;;24.90;99.90;;;;;;4996468;28;20193;-73
2022/09/14 07:41:44;;;;;;;3.97;2.58;;;24.90;99.90;;;;;;5013615;28;20243;-73
2022/09/14 07:44:15;;;;;;;6.82;3.05;;;25.00;99.90;;;;;;4972690;28;20276;-73
2022/09/14 07:46:44;;;;;;;5.88;2.63;;;25.10;99.90;;;;;;5001408;28;20197;-73
2022/09/14 07:49:11;;;;;;;4.10;2.38;;;25.20;99.90;;;;;;5005479;28;20200;-73
2022/09/14 07:51:38;;;;;;;7.20;2.50;;;25.30;99.90;;;;;;5010443;28;20308;-73
2022/09/14 07:54:10;;;;;;;7.80;2.67;;;25.40;99.90;;;;;;4975172;28;20186;-73
2022/09/14 07:56:41;;;;;;;5.40;2.35;;;25.50;99.90;;;;;;5011467;28;20193;-73
2022/09/14 07:59:10;;;;;;;6.95;2.95;;;25.60;99.90;;;;;;5001462;28;20211;-73
2022/09/14 08:01:36;;;;;;;6.97;2.88;;;25.60;99.90;;;;;;4987837;28;20251;-73
2022/09/14 08:04:03;;;;;;;5.90;2.70;;;25.70;99.90;;;;;;4991068;28;20232;-73
2022/09/14 08:06:31;;;;;;;5.30;2.20;;;25.90;99.90;;;;;;4987786;28;20192;-73
2022/09/14 08:08:58;;;;;;;9.13;2.95;;;25.90;99.90;;;;;;4993466;28;20911;-73
2022/09/14 08:11:30;;;;;;;7.32;2.95;;;26.00;99.90;;;;;;4980797;28;20199;-73
2022/09/14 08:14:08;;;;;;;11.00;3.47;;;26.10;99.90;;;;;;4987835;28;20189;-72
2022/09/14 08:16:37;;;;;;;5.03;2.72;;;26.20;99.90;;;;;;4998499;28;20181;-72
2022/09/14 08:19:11;;;;;;;10.35;3.05;;;26.30;99.90;;;;;;5018531;28;20558;-71
2022/09/14 08:21:38;;;;;;;5.60;2.70;;;26.30;99.90;;;;;;5013207;28;20567;-73
2022/09/14 08:24:04;;;;;;;9.25;3.20;;;26.40;99.90;;;;;;5010357;28;20200;-72
2022/09/14 08:26:35;;;;;;;15.57;3.17;;;26.60;99.90;;;;;;4995437;28;20188;-72
2022/09/14 08:29:04;;;;;;;7.60;2.60;;;26.70;99.90;;;;;;5011859;28;20173;-72
2022/09/14 08:31:35;;;;;;;5.72;2.65;;;26.80;99.90;;;;;;5014505;28;20203;-72
2022/09/14 08:34:05;;;;;;;7.20;3.05;;;26.70;99.90;;;;;;4988867;28;20225;-72
2022/09/14 08:36:40;;;;;;;7.28;2.72;;;26.60;99.90;;;;;;5010931;28;20621;-72
2022/09/14 08:39:10;;;;;;;8.95;3.03;;;26.80;99.90;;;;;;4976135;28;20359;-72
2022/09/14 08:41:53;;;;;;;10.55;2.70;;;26.90;99.90;;;;;;4993866;28;20252;-73
2022/09/14 08:44:33;;;;;;;13.23;2.95;;;26.90;99.90;;;;;;4978977;28;20193;-72
2022/09/14 08:47:08;;;;;;;9.38;3.30;;;26.90;99.90;;;;;;5010499;28;20200;-72
2022/09/14 08:50:05;;;;;;;11.25;3.40;;;26.90;99.90;;;;;;4976680;28;20665;-72
2022/09/14 08:52:47;;;;;;;8.52;3.03;;;27.00;99.90;;;;;;4985789;28;20195;-71
2022/09/14 08:55:29;;;;;;;11.70;3.20;;;27.00;99.90;;;;;;4994036;28;20200;-71
2022/09/14 08:58:26;;;;;;;9.57;3.28;;;27.20;99.90;;;;;;4993344;28;20263;-71
2022/09/14 09:01:40;;;;;;;8.77;3.13;;;27.20;99.90;;;;;;4976460;28;20312;-71
2022/09/14 09:04:31;;;;;;;11.25;3.35;;;27.20;99.90;;;;;;5007418;28;20681;-72
2022/09/14 09:07:19;;;;;;;10.93;3.13;;;27.40;99.90;;;;;;5008087;28;20546;-71
2022/09/14 09:09:51;;;;;;;7.35;3.08;;;27.60;99.90;;;;;;5009474;28;20236;-72
2022/09/14 09:12:34;;;;;;;7.45;2.80;;;27.70;99.90;;;;;;5018644;28;20665;-72
2022/09/14 09:15:16;;;;;;;9.15;2.70;;;27.80;99.90;;;;;;4999626;28;20204;-71
2022/09/14 09:17:55;;;;;;;11.43;2.95;;;27.70;99.90;;;;;;4970185;28;20181;-72
2022/09/14 09:20:34;;;;;;;9.98;3.20;;;27.50;99.90;;;;;;5007048;28;20181;-72
2022/09/14 09:23:21;;;;;;;10.50;3.17;;;27.40;99.90;;;;;;4989283;28;20201;-72
2022/09/14 09:25:57;;;;;;;10.32;2.92;;;27.30;99.90;;;;;;4985471;28;20204;-72
2022/09/14 09:28:27;;;;;;;21.88;3.30;;;27.10;99.90;;;;;;5010587;28;20268;-71
2022/09/14 09:30:58;;;;;;;16.73;3.17;;;27.20;99.90;;;;;;4992814;28;20597;-71
2022/09/14 09:33:27;;;;;;;8.25;2.60;;;27.10;99.90;;;;;;5003159;28;20256;-72
2022/09/14 09:35:57;;;;;;;10.95;2.90;;;27.10;99.90;;;;;;4990738;28;20200;-72
2022/09/14 09:38:27;;;;;;;8.68;2.78;;;27.10;99.90;;;;;;4989686;28;20190;-72
2022/09/14 09:41:10;;;;;;;7.43;2.63;;;27.10;99.90;;;;;;4966438;28;20192;-72
2022/09/14 09:44:08;;;;;;;13.00;3.03;;;26.90;99.90;;;;;;5008830;28;20209;-72
2022/09/14 09:46:51;;;;;;;11.82;2.88;;;26.90;99.90;;;;;;5008974;28;20243;-71
2022/09/14 09:49:25;;;;;;;7.78;2.72;;;26.90;99.90;;;;;;5010694;28;20185;-72
2022/09/14 09:51:53;;;;;;;8.98;2.95;;;27.10;99.90;;;;;;5005845;28;20760;-72
2022/09/14 09:54:31;;;;;;;10.60;2.90;;;29.20;99.90;;;;;;5009353;28;20559;-72
2022/09/14 09:57:17;;;;;;;16.58;3.05;;;31.40;99.90;;;;;;4990791;28;20199;-73
2022/09/14 09:59:45;;;;;;;12.52;2.90;;;31.70;99.90;;;;;;5004909;28;20658;-73
2022/09/14 10:02:27;;;;;;;6.18;2.40;;;30.00;99.90;;;;;;4987239;28;20570;-73
2022/09/14 10:04:58;;;;;;;9.73;3.15;;;29.50;99.90;;;;;;4983619;28;20181;-74
2022/09/14 10:07:31;;;;;;;14.50;2.90;;;29.50;99.90;;;;;;4986908;28;20237;-73
2022/09/14 10:10:09;;;;;;;5.55;2.50;;;29.40;99.90;;;;;;4989444;28;20239;-73
2022/09/14 10:12:44;;;;;;;14.60;3.40;;;29.30;99.90;;;;;;4999272;28;20288;-73
2022/09/14 10:15:29;;;;;;;12.40;3.00;;;29.50;99.90;;;;;;4987312;28;20192;-73
2022/09/14 10:18:11;;;;;;;10.82;2.50;;;30.70;99.90;;;;;;4998387;28;20212;-73
2022/09/14 10:21:04;;;;;;;11.38;3.10;;;30.90;99.90;;;;;;5000697;28;20641;-73
2022/09/14 10:23:36;;;;;;;12.05;2.85;;;31.20;99.90;;;;;;4998121;28;20212;-74
2022/09/14 10:26:14;;;;;;;9.00;2.80;;;31.30;99.90;;;;;;4981323;28;20201;-73
2022/09/14 10:28:46;;;;;;;9.50;2.88;;;30.90;99.90;;;;;;5001529;28;20287;-71
2022/09/14 10:31:25;;;;;;;10.65;3.25;;;30.10;99.90;;;;;;5009951;28;20199;-73
2022/09/14 10:33:55;;;;;;;8.57;2.60;;;29.10;99.90;;;;;;5006168;28;20190;-73
2022/09/14 10:36:46;;;;;;;8.00;2.83;;;28.70;99.90;;;;;;5005609;28;20288;-72
2022/09/14 10:39:37;;;;;;;9.73;2.95;;;28.80;99.90;;;;;;5009644;28;20195;-72
2022/09/14 10:42:38;;;;;;;13.05;2.72;;;29.10;99.90;;;;;;4997310;28;20311;-72
2022/09/14 10:45:41;;;;;;;9.40;2.67;;;29.20;99.90;;;;;;4992338;28;20263;-72
2022/09/14 10:49:01;;;;;;;12.85;3.17;;;28.90;99.90;;;;;;4962403;28;20198;-73
2022/09/14 10:52:09;;;;;;;11.43;2.75;;;28.90;99.90;;;;;;4990732;28;20275;-73
2022/09/14 10:54:57;;;;;;;10.93;2.80;;;28.80;99.90;;;;;;5006374;28;20562;-73
2022/09/14 10:57:42;;;;;;;10.05;3.33;;;28.90;99.90;;;;;;4984552;28;20192;-73
2022/09/14 11:00:21;;;;;;;13.82;3.17;;;28.90;99.90;;;;;;4990219;28;20189;-72
2022/09/14 11:03:15;;;;;;;12.30;3.05;;;28.90;99.90;;;;;;4998937;28;20213;-72
2022/09/14 11:06:05;;;;;;;10.77;2.72;;;29.00;99.90;;;;;;5000643;28;20204;-73
2022/09/14 11:08:52;;;;;;;10.05;3.00;;;29.10;99.90;;;;;;4986707;28;20216;-73
2022/09/14 11:11:58;;;;;;;14.35;3.20;;;29.30;99.90;;;;;;4981097;28;20204;-72
2022/09/14 11:14:57;;;;;;;12.25;3.30;;;29.30;99.90;;;;;;5002674;28;20197;-72
2022/09/14 11:17:42;;;;;;;12.90;2.72;;;29.20;99.90;;;;;;5014959;28;20190;-72
2022/09/14 11:20:41;;;;;;;7.43;2.47;;;29.10;99.90;;;;;;5006679;28;20197;-72
2022/09/14 11:23:40;;;;;;;7.93;2.38;;;29.10;99.90;;;;;;4992266;28;20240;-72
2022/09/14 11:26:23;;;;;;;13.52;3.00;;;29.10;99.90;;;;;;4994308;28;20616;-71
2022/09/14 11:29:20;;;;;;;8.35;2.50;;;29.00;99.90;;;;;;4995174;28;20186;-71
2022/09/14 11:32:13;;;;;;;6.85;2.63;;;29.00;99.90;;;;;;4989984;28;20208;-72
2022/09/14 11:35:10;;;;;;;11.88;2.95;;;28.90;99.90;;;;;;4978330;28;20289;-72
2022/09/14 11:37:54;;;;;;;9.68;3.15;;;29.00;99.90;;;;;;5002371;28;20192;-72
2022/09/14 11:40:36;;;;;;;7.30;2.83;;;29.10;99.90;;;;;;4989393;28;20212;-72
2022/09/14 11:43:16;;;;;;;10.75;2.75;;;29.00;99.90;;;;;;4996445;28;20216;-72
2022/09/14 11:46:03;;;;;;;7.45;2.78;;;28.90;99.90;;;;;;4994147;28;20192;-72
2022/09/14 11:49:00;;;;;;;9.00;2.67;;;29.00;99.90;;;;;;5009593;28;20184;-71
2022/09/14 11:51:59;;;;;;;11.55;2.70;;;28.80;99.90;;;;;;4999588;28;20291;-72
2022/09/14 11:54:26;;;;;;;9.05;2.90;;;28.70;99.90;;;;;;5014215;28;20215;-72
2022/09/14 11:57:02;;;;;;;8.15;2.63;;;28.70;99.90;;;;;;5008785;28;20224;-72
2022/09/14 11:59:53;;;;;;;11.50;2.63;;;28.70;99.90;;;;;;4971940;28;20247;-73
2022/09/14 12:02:29;;;;;;;7.65;2.60;;;29.00;99.90;;;;;;4991949;28;20256;-72
2022/09/14 12:05:05;;;;;;;9.10;2.63;;;28.70;99.90;;;;;;5009064;28;20198;-72
2022/09/14 12:07:41;;;;;;;9.88;3.33;;;28.70;99.90;;;;;;4999266;28;20177;-72
2022/09/14 12:10:17;;;;;;;8.45;2.78;;;28.70;99.90;;;;;;5001213;28;20184;-71
2022/09/14 12:12:57;;;;;;;10.23;2.40;;;28.70;99.90;;;;;;5008153;28;20185;-72
2022/09/14 12:15:27;;;;;;;14.65;3.00;;;28.80;99.90;;;;;;5004527;28;20188;-72
2022/09/14 12:18:04;;;;;;;6.38;2.50;;;28.70;99.90;;;;;;4992527;28;20200;-72
2022/09/14 12:20:39;;;;;;;7.45;2.55;;;28.80;99.90;;;;;;5002862;28;20242;-72
2022/09/14 12:23:20;;;;;;;8.68;2.65;;;28.80;99.90;;;;;;5010527;28;20743;-72
2022/09/14 12:26:18;;;;;;;11.15;2.75;;;28.80;99.90;;;;;;4990557;28;20200;-72
2022/09/14 12:28:54;;;;;;;11.18;2.85;;;28.70;99.90;;;;;;4956850;28;21638;-71
2022/09/14 12:31:46;;;;;;;10.10;3.08;;;28.70;99.90;;;;;;5003373;28;20192;-71
2022/09/14 12:34:24;;;;;;;12.63;2.67;;;28.50;99.90;;;;;;4984238;28;20698;-73
2022/09/14 12:36:50;;;;;;;7.70;2.53;;;28.50;99.90;;;;;;4992263;28;20196;-72
2022/09/14 12:39:23;;;;;;;7.63;2.60;;;28.60;99.90;;;;;;4985488;28;20184;-73
2022/09/14 12:41:50;;;;;;;10.15;2.50;;;28.40;99.90;;;;;;4965229;28;20609;-72
2022/09/14 12:44:31;;;;;;;8.95;2.65;;;28.40;99.90;;;;;;4999813;28;20169;-72
2022/09/14 12:47:28;;;;;;;8.70;2.58;;;28.50;99.90;;;;;;5003441;28;20185;-73
2022/09/14 12:50:21;;;;;;;10.38;2.85;;;28.30;99.90;;;;;;4989160;28;20874;-72
2022/09/14 12:53:20;;;;;;;9.13;2.50;;;28.20;99.90;;;;;;5009521;28;20560;-72
2022/09/14 12:56:03;;;;;;;10.90;3.00;;;28.30;99.90;;;;;;4994214;28;20182;-72
2022/09/14 12:59:10;;;;;;;7.25;2.42;;;28.40;99.90;;;;;;4973065;28;20197;-72
2022/09/14 13:02:09;;;;;;;10.13;2.83;;;28.40;99.90;;;;;;4977473;28;20283;-72
2022/09/14 13:04:40;;;;;;;13.35;2.70;;;28.60;99.90;;;;;;4950945;28;20208;-72
2022/09/14 13:07:17;;;;;;;10.95;2.80;;;28.70;99.90;;;;;;4990938;28;22154;-72
2022/09/14 13:09:55;;;;;;;9.70;2.88;;;28.60;99.90;;;;;;5002725;28;20193;-72
2022/09/14 13:12:42;;;;;;;9.52;2.60;;;28.50;99.90;;;;;;4995501;28;20181;-72
2022/09/14 13:15:35;;;;;;;11.07;2.92;;;28.50;99.90;;;;;;4992475;28;20249;-73
2022/09/14 13:18:28;;;;;;;11.52;2.83;;;28.60;99.90;;;;;;4981231;28;20201;-72
2022/09/14 13:21:02;;;;;;;8.70;3.05;;;28.60;99.90;;;;;;4965644;28;20265;-72
2022/09/14 13:23:41;;;;;;;10.05;2.80;;;28.50;99.90;;;;;;4993226;28;20217;-72
2022/09/14 13:26:15;;;;;;;8.80;2.75;;;28.50;99.90;;;;;;4965823;28;20193;-72
2022/09/14 13:28:47;;;;;;;12.68;2.53;;;28.40;99.90;;;;;;4989778;28;20184;-72